sensor_id;sensor_type;location;lat;lon;timestamp;pressure;altitude;pressure_sealevel;temperature;humidity
62124;BME280;48110;47.532;19.078;2024-01-07T00:02:15;98991.50;;;6.16;100.00
62124;BME280;48110;47.532;19.078;2024-01-07T00:05:18;98983.44;;;6.18;100.00
62124;BME280;48110;47.532;19.078;2024-01-07T00:08:21;98986.94;;;6.10;100.00
62124;BME280;48110;47.532;19.078;2024-01-07T00:11:24;98994.19;;;6.08;100.00
62124;BME280;48110;47.532;19.078;2024-01-07T00:14:27;98987.28;;;6.07;100.00
62124;BME280;48110;47.532;19.078;2024-01-07T00:17:30;98990.91;;;6.06;100.00
62124;BME280;48110;47.532;19.078;2024-01-07T00:20:33;98987.75;;;6.10;100.00
62124;BME280;48110;47.532;19.078;2024-01-07T00:23:36;98987.75;;;6.10;100.00
62124;BME280;48110;47.532;19.078;2024-01-07T00:26:39;98994.56;;;6.05;100.00
62124;BME280;48110;47.532;19.078;2024-01-07T00:29:42;98988.94;;;6.08;100.00
62124;BME280;48110;47.532;19.078;2024-01-07T00:32:45;98991.09;;;6.04;100.00
62124;BME280;48110;47.532;19.078;2024-01-07T00:35:48;98996.00;;;6.07;100.00
62124;BME280;48110;47.532;19.078;2024-01-07T00:38:51;98986.78;;;6.11;100.00
62124;BME280;48110;47.532;19.078;2024-01-07T00:41:54;98981.56;;;6.03;100.00
62124;BME280;48110;47.532;19.078;2024-01-07T00:44:57;98982.50;;;6.10;100.00
62124;BME280;48110;47.532;19.078;2024-01-07T00:48:00;98984.78;;;6.14;100.00
62124;BME280;48110;47.532;19.078;2024-01-07T00:51:03;98984.31;;;6.10;100.00
62124;BME280;48110;47.532;19.078;2024-01-07T00:54:07;98979.37;;;6.07;100.00
62124;BME280;48110;47.532;19.078;2024-01-07T00:57:12;98983.84;;;6.06;100.00
62124;BME280;48110;47.532;19.078;2024-01-07T01:00:16;98990.59;;;6.09;100.00
62124;BME280;48110;47.532;19.078;2024-01-07T01:03:20;98987.22;;;6.15;100.00
62124;BME280;48110;47.532;19.078;2024-01-07T01:06:23;98988.94;;;6.08;100.00
62124;BME280;48110;47.532;19.078;2024-01-07T01:09:28;98985.63;;;6.14;100.00
62124;BME280;48110;47.532;19.078;2024-01-07T01:12:31;98988.34;;;6.21;100.00
62124;BME280;48110;47.532;19.078;2024-01-07T01:15:34;98986.22;;;6.24;100.00
62124;BME280;48110;47.532;19.078;2024-01-07T01:18:37;98986.09;;;6.18;100.00
62124;BME280;48110;47.532;19.078;2024-01-07T01:21:40;98990.38;;;6.10;100.00
62124;BME280;48110;47.532;19.078;2024-01-07T01:24:43;98991.06;;;6.12;100.00
62124;BME280;48110;47.532;19.078;2024-01-07T01:27:48;98984.59;;;6.15;100.00
62124;BME280;48110;47.532;19.078;2024-01-07T01:30:51;98976.91;;;6.14;100.00
62124;BME280;48110;47.532;19.078;2024-01-07T01:33:54;98974.38;;;6.20;100.00
62124;BME280;48110;47.532;19.078;2024-01-07T01:36:58;98974.72;;;6.17;100.00
62124;BME280;48110;47.532;19.078;2024-01-07T01:40:01;98983.97;;;6.13;100.00
62124;BME280;48110;47.532;19.078;2024-01-07T01:43:04;98975.69;;;6.24;100.00
62124;BME280;48110;47.532;19.078;2024-01-07T01:46:08;98972.09;;;6.17;100.00
62124;BME280;48110;47.532;19.078;2024-01-07T01:49:11;98969.31;;;6.19;100.00
62124;BME280;48110;47.532;19.078;2024-01-07T01:52:14;98969.53;;;6.09;100.00
62124;BME280;48110;47.532;19.078;2024-01-07T01:55:18;98969.31;;;6.10;100.00
62124;BME280;48110;47.532;19.078;2024-01-07T01:58:23;98964.06;;;6.10;100.00
62124;BME280;48110;47.532;19.078;2024-01-07T02:01:26;98966.53;;;6.12;100.00
62124;BME280;48110;47.532;19.078;2024-01-07T02:04:29;98962.63;;;6.08;100.00
62124;BME280;48110;47.532;19.078;2024-01-07T02:07:33;98968.47;;;6.18;100.00
62124;BME280;48110;47.532;19.078;2024-01-07T02:10:36;98976.19;;;6.20;100.00
62124;BME280;48110;47.532;19.078;2024-01-07T02:13:43;98959.47;;;6.12;100.00
62124;BME280;48110;47.532;19.078;2024-01-07T02:16:46;98962.22;;;6.19;100.00
62124;BME280;48110;47.532;19.078;2024-01-07T02:19:49;98959.81;;;6.09;100.00
62124;BME280;48110;47.532;19.078;2024-01-07T02:22:52;98954.25;;;6.04;100.00
62124;BME280;48110;47.532;19.078;2024-01-07T02:25:56;98952.03;;;6.16;100.00
62124;BME280;48110;47.532;19.078;2024-01-07T02:28:59;98949.59;;;6.06;100.00
62124;BME280;48110;47.532;19.078;2024-01-07T02:32:02;98951.09;;;6.09;100.00
62124;BME280;48110;47.532;19.078;2024-01-07T02:35:06;98946.94;;;6.15;100.00
62124;BME280;48110;47.532;19.078;2024-01-07T02:38:09;98949.50;;;6.00;100.00
62124;BME280;48110;47.532;19.078;2024-01-07T02:41:12;98942.75;;;5.97;100.00
62124;BME280;48110;47.532;19.078;2024-01-07T02:44:15;98947.50;;;6.02;100.00
62124;BME280;48110;47.532;19.078;2024-01-07T02:47:18;98940.28;;;5.96;100.00
62124;BME280;48110;47.532;19.078;2024-01-07T02:50:21;98935.81;;;6.04;100.00
62124;BME280;48110;47.532;19.078;2024-01-07T02:53:23;98932.38;;;6.04;100.00
62124;BME280;48110;47.532;19.078;2024-01-07T02:56:26;98933.22;;;5.96;100.00
62124;BME280;48110;47.532;19.078;2024-01-07T02:59:29;98926.81;;;5.99;100.00
62124;BME280;48110;47.532;19.078;2024-01-07T03:02:32;98930.78;;;5.95;100.00
62124;BME280;48110;47.532;19.078;2024-01-07T03:05:35;98926.19;;;5.89;100.00
62124;BME280;48110;47.532;19.078;2024-01-07T03:08:38;98929.25;;;6.00;100.00
62124;BME280;48110;47.532;19.078;2024-01-07T03:11:41;98921.53;;;5.99;100.00
62124;BME280;48110;47.532;19.078;2024-01-07T03:14:44;98926.28;;;6.03;100.00
62124;BME280;48110;47.532;19.078;2024-01-07T03:17:47;98917.41;;;5.96;100.00
62124;BME280;48110;47.532;19.078;2024-01-07T03:20:50;98922.06;;;5.94;100.00
62124;BME280;48110;47.532;19.078;2024-01-07T03:23:53;98922.34;;;5.99;100.00
62124;BME280;48110;47.532;19.078;2024-01-07T03:26:56;98916.59;;;5.96;100.00
62124;BME280;48110;47.532;19.078;2024-01-07T03:29:59;98919.44;;;5.94;100.00
62124;BME280;48110;47.532;19.078;2024-01-07T03:33:02;98917.66;;;5.87;100.00
62124;BME280;48110;47.532;19.078;2024-01-07T03:36:13;98924.84;;;5.93;100.00
62124;BME280;48110;47.532;19.078;2024-01-07T03:39:16;98911.84;;;5.91;100.00
62124;BME280;48110;47.532;19.078;2024-01-07T03:42:19;98912.22;;;5.88;100.00
62124;BME280;48110;47.532;19.078;2024-01-07T03:45:22;98906.94;;;5.88;100.00
62124;BME280;48110;47.532;19.078;2024-01-07T03:48:26;98906.25;;;5.94;100.00
62124;BME280;48110;47.532;19.078;2024-01-07T03:51:29;98909.00;;;6.01;100.00
62124;BME280;48110;47.532;19.078;2024-01-07T03:54:32;98918.78;;;5.92;100.00
62124;BME280;48110;47.532;19.078;2024-01-07T03:57:35;98914.69;;;5.90;100.00
62124;BME280;48110;47.532;19.078;2024-01-07T04:00:38;98906.94;;;5.88;100.00
62124;BME280;48110;47.532;19.078;2024-01-07T04:03:41;98910.56;;;5.87;100.00
62124;BME280;48110;47.532;19.078;2024-01-07T04:06:44;98919.59;;;5.93;100.00
62124;BME280;48110;47.532;19.078;2024-01-07T04:09:47;98921.53;;;5.99;100.00
62124;BME280;48110;47.532;19.078;2024-01-07T04:12:50;98920.41;;;5.93;100.00
62124;BME280;48110;47.532;19.078;2024-01-07T04:15:53;98923.88;;;5.94;100.00
62124;BME280;48110;47.532;19.078;2024-01-07T04:18:56;98929.75;;;5.96;100.00
62124;BME280;48110;47.532;19.078;2024-01-07T04:21:59;98924.50;;;5.96;100.00
62124;BME280;48110;47.532;19.078;2024-01-07T04:25:02;98922.97;;;6.01;100.00
62124;BME280;48110;47.532;19.078;2024-01-07T04:28:06;98932.38;;;5.96;100.00
62124;BME280;48110;47.532;19.078;2024-01-07T04:31:08;98929.97;;;5.94;100.00
62124;BME280;48110;47.532;19.078;2024-01-07T04:34:12;98930.88;;;6.01;100.00
62124;BME280;48110;47.532;19.078;2024-01-07T04:37:15;98928.16;;;5.95;100.00
62124;BME280;48110;47.532;19.078;2024-01-07T04:40:19;98926.81;;;5.99;100.00
62124;BME280;48110;47.532;19.078;2024-01-07T04:43:21;98928.97;;;5.95;100.00
62124;BME280;48110;47.532;19.078;2024-01-07T04:46:24;98926.97;;;5.97;100.00
62124;BME280;48110;47.532;19.078;2024-01-07T04:49:27;98935.22;;;5.94;100.00
62124;BME280;48110;47.532;19.078;2024-01-07T04:52:30;98935.03;;;5.96;100.00
62124;BME280;48110;47.532;19.078;2024-01-07T04:55:33;98936.97;;;6.02;100.00
62124;BME280;48110;47.532;19.078;2024-01-07T04:58:36;98933.19;;;6.04;100.00
62124;BME280;48110;47.532;19.078;2024-01-07T05:01:39;98932.16;;;6.05;100.00
62124;BME280;48110;47.532;19.078;2024-01-07T05:04:42;98922.34;;;5.99;100.00
62124;BME280;48110;47.532;19.078;2024-01-07T05:07:45;98930.06;;;6.01;100.00
62124;BME280;48110;47.532;19.078;2024-01-07T05:10:48;98921.19;;;6.02;100.00
62124;BME280;48110;47.532;19.078;2024-01-07T05:13:51;98926.44;;;6.02;100.00
62124;BME280;48110;47.532;19.078;2024-01-07T05:16:57;98917.72;;;6.01;100.00
62124;BME280;48110;47.532;19.078;2024-01-07T05:19:59;98924.78;;;6.01;100.00
62124;BME280;48110;47.532;19.078;2024-01-07T05:23:03;98917.09;;;5.99;100.00
62124;BME280;48110;47.532;19.078;2024-01-07T05:26:06;98920.06;;;5.96;100.00
62124;BME280;48110;47.532;19.078;2024-01-07T05:29:09;98913.63;;;5.99;100.00
62124;BME280;48110;47.532;19.078;2024-01-07T05:32:12;98925.00;;;5.99;100.00
62124;BME280;48110;47.532;19.078;2024-01-07T05:35:15;98922.97;;;6.01;100.00
62124;BME280;48110;47.532;19.078;2024-01-07T05:38:17;98922.97;;;6.01;100.00
62124;BME280;48110;47.532;19.078;2024-01-07T05:41:20;98932.81;;;6.07;100.00
62124;BME280;48110;47.532;19.078;2024-01-07T05:44:23;98913.88;;;6.12;100.00
62124;BME280;48110;47.532;19.078;2024-01-07T05:47:29;98919.78;;;6.14;100.00
62124;BME280;48110;47.532;19.078;2024-01-07T05:50:32;98923.94;;;6.08;100.00
62124;BME280;48110;47.532;19.078;2024-01-07T05:53:36;98919.81;;;6.06;100.00
62124;BME280;48110;47.532;19.078;2024-01-07T05:56:39;98921.94;;;6.10;100.00
62124;BME280;48110;47.532;19.078;2024-01-07T05:59:45;98922.44;;;6.14;100.00
62124;BME280;48110;47.532;19.078;2024-01-07T06:02:48;98926.06;;;6.13;100.00
62124;BME280;48110;47.532;19.078;2024-01-07T06:05:51;98923.25;;;6.15;100.00
62124;BME280;48110;47.532;19.078;2024-01-07T06:08:54;98925.00;;;6.22;100.00
62124;BME280;48110;47.532;19.078;2024-01-07T06:11:57;98928.31;;;6.16;100.00
62124;BME280;48110;47.532;19.078;2024-01-07T06:15:00;98918.63;;;6.17;100.00
62124;BME280;48110;47.532;19.078;2024-01-07T06:18:03;98927.69;;;6.14;100.00
62124;BME280;48110;47.532;19.078;2024-01-07T06:21:06;98928.69;;;6.13;100.00
62124;BME280;48110;47.532;19.078;2024-01-07T06:24:09;98923.25;;;6.15;100.00
62124;BME280;48110;47.532;19.078;2024-01-07T06:27:13;98931.16;;;6.15;100.00
62124;BME280;48110;47.532;19.078;2024-01-07T06:30:16;98927.50;;;6.16;100.00
62124;BME280;48110;47.532;19.078;2024-01-07T06:33:21;98924.34;;;6.20;100.00
62124;BME280;48110;47.532;19.078;2024-01-07T06:36:24;98934.25;;;6.18;100.00
62124;BME280;48110;47.532;19.078;2024-01-07T06:39:27;98936.97;;;6.25;100.00
62124;BME280;48110;47.532;19.078;2024-01-07T06:42:31;98933.34;;;6.26;100.00
62124;BME280;48110;47.532;19.078;2024-01-07T06:45:34;98932.72;;;6.24;100.00
62124;BME280;48110;47.532;19.078;2024-01-07T06:48:37;98934.03;;;6.20;100.00
62124;BME280;48110;47.532;19.078;2024-01-07T06:51:40;98947.56;;;6.17;100.00
62124;BME280;48110;47.532;19.078;2024-01-07T06:54:43;98946.22;;;6.21;100.00
62124;BME280;48110;47.532;19.078;2024-01-07T06:57:45;98940.97;;;6.21;100.00
62124;BME280;48110;47.532;19.078;2024-01-07T07:00:48;98955.59;;;6.23;100.00
62124;BME280;48110;47.532;19.078;2024-01-07T07:03:51;98941.44;;;6.24;100.00
62124;BME280;48110;47.532;19.078;2024-01-07T07:06:55;98955.25;;;6.26;100.00
62124;BME280;48110;47.532;19.078;2024-01-07T07:09:59;98946.06;;;6.22;100.00
62124;BME280;48110;47.532;19.078;2024-01-07T07:13:02;98958.88;;;6.25;100.00
62124;BME280;48110;47.532;19.078;2024-01-07T07:16:06;98954.91;;;6.29;100.00
62124;BME280;48110;47.532;19.078;2024-01-07T07:19:09;98950.81;;;6.27;100.00
62124;BME280;48110;47.532;19.078;2024-01-07T07:22:16;98947.19;;;6.28;100.00
62124;BME280;48110;47.532;19.078;2024-01-07T07:25:20;98951.09;;;6.32;100.00
62124;BME280;48110;47.532;19.078;2024-01-07T07:28:23;98954.38;;;6.34;100.00
62124;BME280;48110;47.532;19.078;2024-01-07T07:31:26;98964.09;;;6.33;100.00
62124;BME280;48110;47.532;19.078;2024-01-07T07:34:28;98960.12;;;6.37;100.00
62124;BME280;48110;47.532;19.078;2024-01-07T07:37:32;98960.66;;;6.33;100.00
62124;BME280;48110;47.532;19.078;2024-01-07T07:40:35;98955.84;;;6.36;100.00
62124;BME280;48110;47.532;19.078;2024-01-07T07:43:37;98961.50;;;6.25;100.00
62124;BME280;48110;47.532;19.078;2024-01-07T07:46:40;98958.19;;;6.31;100.00
62124;BME280;48110;47.532;19.078;2024-01-07T07:49:44;98964.72;;;6.35;100.00
62124;BME280;48110;47.532;19.078;2024-01-07T07:52:47;98968.47;;;6.41;100.00
62124;BME280;48110;47.532;19.078;2024-01-07T07:55:50;98976.91;;;6.36;100.00
62124;BME280;48110;47.532;19.078;2024-01-07T07:58:53;98969.47;;;6.40;100.00
62124;BME280;48110;47.532;19.078;2024-01-07T08:01:56;98970.75;;;6.44;100.00
62124;BME280;48110;47.532;19.078;2024-01-07T08:04:59;98976.16;;;6.50;100.00
62124;BME280;48110;47.532;19.078;2024-01-07T08:08:03;98974.34;;;6.51;100.00
62124;BME280;48110;47.532;19.078;2024-01-07T08:11:06;98974.88;;;6.46;100.00
62124;BME280;48110;47.532;19.078;2024-01-07T08:14:11;98980.25;;;6.53;100.00
62124;BME280;48110;47.532;19.078;2024-01-07T08:17:14;98973.81;;;6.55;100.00
62124;BME280;48110;47.532;19.078;2024-01-07T08:20:17;98978.72;;;6.59;100.00
62124;BME280;48110;47.532;19.078;2024-01-07T08:23:20;98983.53;;;6.55;100.00
62124;BME280;48110;47.532;19.078;2024-01-07T08:26:23;98982.81;;;6.61;100.00
62124;BME280;48110;47.532;19.078;2024-01-07T08:29:27;98983.34;;;6.57;100.00
62124;BME280;48110;47.532;19.078;2024-01-07T08:32:29;98989.75;;;6.62;100.00
62124;BME280;48110;47.532;19.078;2024-01-07T08:35:32;99000.00;;;6.57;100.00
62124;BME280;48110;47.532;19.078;2024-01-07T08:38:35;98999.28;;;6.63;100.00
62124;BME280;48110;47.532;19.078;2024-01-07T08:41:38;98993.81;;;6.65;100.00
62124;BME280;48110;47.532;19.078;2024-01-07T08:44:42;98998.62;;;6.61;100.00
62124;BME280;48110;47.532;19.078;2024-01-07T08:47:45;99001.41;;;6.68;100.00
62124;BME280;48110;47.532;19.078;2024-01-07T08:50:48;99007.19;;;6.63;100.00
62124;BME280;48110;47.532;19.078;2024-01-07T08:53:52;99006.19;;;6.64;100.00
62124;BME280;48110;47.532;19.078;2024-01-07T08:56:55;99003.22;;;6.67;100.00
62124;BME280;48110;47.532;19.078;2024-01-07T08:59:58;99011.22;;;6.74;100.00
62124;BME280;48110;47.532;19.078;2024-01-07T09:03:01;99004.50;;;6.71;100.00
62124;BME280;48110;47.532;19.078;2024-01-07T09:06:04;99009.84;;;6.78;100.00
62124;BME280;48110;47.532;19.078;2024-01-07T09:09:07;99009.06;;;6.77;100.00
62124;BME280;48110;47.532;19.078;2024-01-07T09:12:11;99011.22;;;6.74;100.00
62124;BME280;48110;47.532;19.078;2024-01-07T09:15:14;99007.47;;;6.68;100.00
62124;BME280;48110;47.532;19.078;2024-01-07T09:18:17;99012.28;;;6.65;100.00
62124;BME280;48110;47.532;19.078;2024-01-07T09:21:21;99024.81;;;6.63;100.00
62124;BME280;48110;47.532;19.078;2024-01-07T09:24:26;99011.13;;;6.67;100.00
62124;BME280;48110;47.532;19.078;2024-01-07T09:27:29;99020.13;;;6.73;100.00
62124;BME280;48110;47.532;19.078;2024-01-07T09:30:32;99024.22;;;6.75;100.00
62124;BME280;48110;47.532;19.078;2024-01-07T09:33:35;99019.25;;;6.80;100.00
62124;BME280;48110;47.532;19.078;2024-01-07T09:36:38;99033.31;;;6.73;100.00
62124;BME280;48110;47.532;19.078;2024-01-07T09:39:41;99021.22;;;6.78;100.00
62124;BME280;48110;47.532;19.078;2024-01-07T09:42:44;99020.69;;;6.83;100.00
62124;BME280;48110;47.532;19.078;2024-01-07T09:45:47;99019.69;;;6.84;100.00
62124;BME280;48110;47.532;19.078;2024-01-07T09:48:53;99022.16;;;6.85;100.00
62124;BME280;48110;47.532;19.078;2024-01-07T09:52:00;99016.72;;;6.87;100.00
62124;BME280;48110;47.532;19.078;2024-01-07T09:55:08;99013.91;;;6.88;100.00
62124;BME280;48110;47.532;19.078;2024-01-07T09:58:12;99008.16;;;6.85;100.00
62124;BME280;48110;47.532;19.078;2024-01-07T10:01:19;99008.34;;;6.83;100.00
62124;BME280;48110;47.532;19.078;2024-01-07T10:04:23;99004.63;;;6.92;100.00
62124;BME280;48110;47.532;19.078;2024-01-07T10:07:27;99003.56;;;6.87;100.00
62124;BME280;48110;47.532;19.078;2024-01-07T10:10:30;99001.72;;;6.87;100.00
62124;BME280;48110;47.532;19.078;2024-01-07T10:13:33;99006.19;;;6.87;100.00
62124;BME280;48110;47.532;19.078;2024-01-07T10:16:36;98995.66;;;6.87;100.00
62124;BME280;48110;47.532;19.078;2024-01-07T10:19:39;99003.63;;;6.93;100.00
62124;BME280;48110;47.532;19.078;2024-01-07T10:22:46;99002.81;;;6.93;100.00
62124;BME280;48110;47.532;19.078;2024-01-07T10:25:53;98998.22;;;7.10;100.00
62124;BME280;48110;47.532;19.078;2024-01-07T10:28:57;98996.13;;;7.05;100.00
62124;BME280;48110;47.532;19.078;2024-01-07T10:32:00;98989.75;;;6.99;100.00
62124;BME280;48110;47.532;19.078;2024-01-07T10:35:12;98990.13;;;6.96;100.00
62124;BME280;48110;47.532;19.078;2024-01-07T10:38:15;98984.84;;;6.96;100.00
62124;BME280;48110;47.532;19.078;2024-01-07T10:41:18;98999.59;;;6.83;100.00
62124;BME280;48110;47.532;19.078;2024-01-07T10:44:21;98991.78;;;6.75;100.00
62124;BME280;48110;47.532;19.078;2024-01-07T10:47:29;98992.97;;;6.72;100.00
62124;BME280;48110;47.532;19.078;2024-01-07T10:50:33;98986.38;;;6.68;100.00
62124;BME280;48110;47.532;19.078;2024-01-07T10:53:38;98993.06;;;6.79;100.00
62124;BME280;48110;47.532;19.078;2024-01-07T10:56:45;98992.22;;;6.78;100.00
62124;BME280;48110;47.532;19.078;2024-01-07T10:59:52;98991.53;;;6.84;100.00
62124;BME280;48110;47.532;19.078;2024-01-07T11:03:14;98982.38;;;6.95;100.00
62124;BME280;48110;47.532;19.078;2024-01-07T11:12:33;98975.34;;;6.87;100.00
62124;BME280;48110;47.532;19.078;2024-01-07T11:18:50;98977.97;;;6.73;100.00
62124;BME280;48110;47.532;19.078;2024-01-07T11:22:26;98985.38;;;6.69;100.00
62124;BME280;48110;47.532;19.078;2024-01-07T11:25:33;98974.91;;;6.61;100.00
62124;BME280;48110;47.532;19.078;2024-01-07T11:28:46;98968.25;;;6.50;100.00
62124;BME280;48110;47.532;19.078;2024-01-07T11:31:49;98975.41;;;6.42;100.00
62124;BME280;48110;47.532;19.078;2024-01-07T11:34:53;98979.63;;;6.20;100.00
62124;BME280;48110;47.532;19.078;2024-01-07T11:37:57;98973.31;;;6.06;100.00
62124;BME280;48110;47.532;19.078;2024-01-07T11:41:00;98978.63;;;5.98;100.00
62124;BME280;48110;47.532;19.078;2024-01-07T11:44:04;98976.62;;;6.00;100.00
62124;BME280;48110;47.532;19.078;2024-01-07T11:47:08;98977.34;;;5.94;100.00
62124;BME280;48110;47.532;19.078;2024-01-07T11:50:12;98972.78;;;5.80;100.00
62124;BME280;48110;47.532;19.078;2024-01-07T11:53:15;98978.25;;;5.71;100.00
62124;BME280;48110;47.532;19.078;2024-01-07T11:56:18;98976.12;;;5.66;100.00
62124;BME280;48110;47.532;19.078;2024-01-07T11:59:21;98978.13;;;5.56;100.00
62124;BME280;48110;47.532;19.078;2024-01-07T12:02:24;98974.47;;;5.57;100.00
62124;BME280;48110;47.532;19.078;2024-01-07T12:05:29;98971.53;;;5.52;100.00
62124;BME280;48110;47.532;19.078;2024-01-07T12:08:32;98963.53;;;5.45;100.00
62124;BME280;48110;47.532;19.078;2024-01-07T12:11:36;98968.81;;;5.37;100.00
62124;BME280;48110;47.532;19.078;2024-01-07T12:14:41;98974.75;;;5.31;100.00
62124;BME280;48110;47.532;19.078;2024-01-07T12:17:55;98975.72;;;5.30;100.00
62124;BME280;48110;47.532;19.078;2024-01-07T12:20:59;98985.63;;;5.12;100.00
62124;BME280;48110;47.532;19.078;2024-01-07T12:24:04;98986.78;;;5.09;100.00
62124;BME280;48110;47.532;19.078;2024-01-07T12:27:06;98981.72;;;5.08;100.00
62124;BME280;48110;47.532;19.078;2024-01-07T12:30:10;98992.22;;;5.08;100.00
62124;BME280;48110;47.532;19.078;2024-01-07T12:33:18;98987.78;;;5.00;100.00
62124;BME280;48110;47.532;19.078;2024-01-07T12:36:22;98982.88;;;4.97;100.00
62124;BME280;48110;47.532;19.078;2024-01-07T12:39:25;98980.53;;;4.94;100.00
62124;BME280;48110;47.532;19.078;2024-01-07T12:42:30;98987.63;;;4.94;100.00
62124;BME280;48110;47.532;19.078;2024-01-07T12:45:34;98993.69;;;4.94;100.00
62124;BME280;48110;47.532;19.078;2024-01-07T12:48:37;98997.81;;;4.80;100.00
62124;BME280;48110;47.532;19.078;2024-01-07T12:51:40;98994.84;;;4.75;100.00
62124;BME280;48110;47.532;19.078;2024-01-07T12:54:43;98999.78;;;4.54;100.00
62124;BME280;48110;47.532;19.078;2024-01-07T12:57:45;99001.25;;;4.49;100.00
62124;BME280;48110;47.532;19.078;2024-01-07T13:00:48;98997.31;;;4.45;100.00
62124;BME280;48110;47.532;19.078;2024-01-07T13:03:52;99010.09;;;4.40;100.00
62124;BME280;48110;47.532;19.078;2024-01-07T13:06:55;99013.22;;;4.35;100.00
62124;BME280;48110;47.532;19.078;2024-01-07T13:09:58;99017.13;;;4.31;100.00
62124;BME280;48110;47.532;19.078;2024-01-07T13:13:01;99019.09;;;4.29;100.00
62124;BME280;48110;47.532;19.078;2024-01-07T13:16:13;99013.56;;;4.40;100.00
62124;BME280;48110;47.532;19.078;2024-01-07T13:19:17;99026.00;;;4.46;100.00
62124;BME280;48110;47.532;19.078;2024-01-07T13:22:20;99029.31;;;4.48;100.00
62124;BME280;48110;47.532;19.078;2024-01-07T13:25:22;99026.50;;;4.33;100.00
62124;BME280;48110;47.532;19.078;2024-01-07T13:28:25;99021.06;;;4.27;100.00
62124;BME280;48110;47.532;19.078;2024-01-07T13:31:29;99027.63;;;4.31;100.00
62124;BME280;48110;47.532;19.078;2024-01-07T13:34:32;99034.53;;;4.32;100.00
62124;BME280;48110;47.532;19.078;2024-01-07T13:37:36;99033.41;;;4.34;100.00
62124;BME280;48110;47.532;19.078;2024-01-07T13:40:40;99027.31;;;4.26;100.00
62124;BME280;48110;47.532;19.078;2024-01-07T13:43:43;99035.78;;;4.12;100.00
62124;BME280;48110;47.532;19.078;2024-01-07T13:46:47;99045.00;;;4.16;100.00
62124;BME280;48110;47.532;19.078;2024-01-07T13:49:50;99049.56;;;4.14;100.00
62124;BME280;48110;47.532;19.078;2024-01-07T13:52:53;99053.31;;;4.03;100.00
62124;BME280;48110;47.532;19.078;2024-01-07T13:55:56;99056.91;;;4.02;100.00
62124;BME280;48110;47.532;19.078;2024-01-07T13:58:59;99050.31;;;3.90;100.00
62124;BME280;48110;47.532;19.078;2024-01-07T14:02:02;99048.00;;;3.87;100.00
62124;BME280;48110;47.532;19.078;2024-01-07T14:05:07;99052.56;;;3.77;100.00
62124;BME280;48110;47.532;19.078;2024-01-07T14:08:13;99056.97;;;3.76;100.00
62124;BME280;48110;47.532;19.078;2024-01-07T14:11:16;99051.53;;;3.70;100.00
62124;BME280;48110;47.532;19.078;2024-01-07T14:14:20;99049.47;;;3.56;100.00
62124;BME280;48110;47.532;19.078;2024-01-07T14:17:23;99052.25;;;3.54;100.00
62124;BME280;48110;47.532;19.078;2024-01-07T14:20:26;99063.75;;;3.53;100.00
62124;BME280;48110;47.532;19.078;2024-01-07T14:23:32;99056.63;;;3.45;100.00
62124;BME280;48110;47.532;19.078;2024-01-07T14:26:36;99071.34;;;3.38;100.00
62124;BME280;48110;47.532;19.078;2024-01-07T14:29:39;99066.25;;;3.37;100.00
62124;BME280;48110;47.532;19.078;2024-01-07T14:32:41;99077.66;;;3.28;100.00
62124;BME280;48110;47.532;19.078;2024-01-07T14:35:44;99088.59;;;3.23;100.00
62124;BME280;48110;47.532;19.078;2024-01-07T14:38:47;99088.88;;;3.20;100.00
62124;BME280;48110;47.532;19.078;2024-01-07T14:41:50;99079.50;;;3.10;100.00
62124;BME280;48110;47.532;19.078;2024-01-07T14:44:53;99091.59;;;3.11;100.00
62124;BME280;48110;47.532;19.078;2024-01-07T14:47:56;99095.66;;;3.05;100.00
62124;BME280;48110;47.532;19.078;2024-01-07T14:51:00;99102.91;;;3.11;100.00
62124;BME280;48110;47.532;19.078;2024-01-07T14:54:04;99080.31;;;2.92;100.00
62124;BME280;48110;47.532;19.078;2024-01-07T14:57:06;99105.41;;;2.95;100.00
62124;BME280;48110;47.532;19.078;2024-01-07T15:00:11;99113.28;;;2.95;100.00
62124;BME280;48110;47.532;19.078;2024-01-07T15:03:16;99107.50;;;2.91;100.00
62124;BME280;48110;47.532;19.078;2024-01-07T15:06:20;99110.41;;;2.88;100.00
62124;BME280;48110;47.532;19.078;2024-01-07T15:09:23;99112.97;;;2.80;100.00
62124;BME280;48110;47.532;19.078;2024-01-07T15:12:25;99123.06;;;2.75;100.00
62124;BME280;48110;47.532;19.078;2024-01-07T15:15:38;99124.84;;;2.75;100.00
62124;BME280;48110;47.532;19.078;2024-01-07T15:18:41;99128.44;;;2.74;100.00
62124;BME280;48110;47.532;19.078;2024-01-07T15:21:44;99133.81;;;2.72;100.00
62124;BME280;48110;47.532;19.078;2024-01-07T15:24:47;99123.28;;;2.64;100.00
62124;BME280;48110;47.532;19.078;2024-01-07T15:27:50;99129.78;;;2.60;100.00
62124;BME280;48110;47.532;19.078;2024-01-07T15:30:54;99147.81;;;2.63;100.00
62124;BME280;48110;47.532;19.078;2024-01-07T15:33:58;99149.31;;;2.66;100.00
62124;BME280;48110;47.532;19.078;2024-01-07T15:37:01;99143.38;;;2.63;100.00
62124;BME280;48110;47.532;19.078;2024-01-07T15:40:05;99149.91;;;2.59;100.00
62124;BME280;48110;47.532;19.078;2024-01-07T15:43:08;99151.88;;;2.48;100.00
62124;BME280;48110;47.532;19.078;2024-01-07T15:46:15;99148.56;;;2.55;100.00
62124;BME280;48110;47.532;19.078;2024-01-07T15:49:18;99150.91;;;2.49;100.00
62124;BME280;48110;47.532;19.078;2024-01-07T15:52:21;99151.06;;;2.47;100.00
62124;BME280;48110;47.532;19.078;2024-01-07T15:55:25;99150.91;;;2.49;100.00
62124;BME280;48110;47.532;19.078;2024-01-07T15:58:29;99144.19;;;2.46;100.00
62124;BME280;48110;47.532;19.078;2024-01-07T16:01:37;99145.16;;;2.45;100.00
62124;BME280;48110;47.532;19.078;2024-01-07T16:04:41;99154.59;;;2.29;100.00
62124;BME280;48110;47.532;19.078;2024-01-07T16:07:44;99166.69;;;2.39;100.00
62124;BME280;48110;47.532;19.078;2024-01-07T16:10:47;99169.22;;;2.31;100.00